Latest Weather Observations for Scotts Peak

IDT60801

Issued at 8:51 am EST Wednesday 18 September 2019 (issued every 10 minutes, with the page automatically refreshed every 10 minutes)

About weather observations | Map of weather stations | Latest weather observations for TAS | Other Formats
Station Details ID: 097083 Name: SCOTTS PEAK DAM Lat: -43.04 Lon: 146.27 Height: 408.0 m
Data from the previous 72 hours. | See also: Recent months at Scotts Peak
Date/Time
EST
Temp
°C
App
Temp
°C
Dew
Point
°C
Rel
Hum
%
Delta-T
°C
Wind Press
QNH
hPa
Press
MSL
hPa
Rain since
9am
mm
Dir  Spd
km/h
Gust
km/h
Spd
kts
Gust
kts
18/08:30am 6.0 0.0 3.2 82 1.2 N 24 32 13 17 - - 0.2
18/08:00am 5.7 -0.2 3.7 87 0.9 NNW 24 32 13 17 - - 0.2
18/07:30am 5.3 -0.2 3.8 90 0.6 N 22 28 12 15 - - 0.2
18/07:00am 5.1 -0.9 3.6 90 0.6 N 24 32 13 17 - - 0.2
18/06:30am 5.0 -0.6 3.7 91 0.6 NNW 22 30 12 16 - - 0.2
18/06:00am 4.8 -1.5 3.8 93 0.4 NNW 26 33 14 18 - - 0.2
18/05:30am 4.7 -1.9 4.3 97 0.2 NNW 28 37 15 20 - - 0.2
18/05:00am 4.5 -2.8 4.5 100 0.0 N 32 39 17 21 - - 0.2
18/04:30am 4.5 -2.8 4.5 100 0.0 NNW 32 41 17 22 - - 0.2
18/04:00am 4.3 -1.9 4.3 100 0.0 N 26 33 14 18 - - 0.2
18/03:30am 4.4 -1.8 4.4 100 0.0 NNW 26 32 14 17 - - 0.2
18/03:00am 4.2 -2.0 4.2 100 0.0 NNW 26 35 14 19 - - 0.2
18/02:30am 4.4 -2.2 4.4 100 0.0 NNW 28 35 15 19 - - 0.2
18/02:00am 4.4 -2.2 4.4 100 0.0 NNW 28 33 15 18 - - 0.2
18/01:30am 4.6 -2.0 4.3 98 0.1 NNW 28 33 15 18 - - 0.2
18/01:00am 4.6 -0.6 3.7 94 0.4 NW 20 26 11 14 - - 0.2
18/12:30am 5.0 -2.6 3.7 91 0.6 NNW 33 41 18 22 - - 0.2
18/12:00am 4.7 -1.9 4.0 95 0.3 NNW 28 33 15 18 - - 0.2
 
Date/Time
EST
Temp
°C
App
Temp
°C
Dew
Point
°C
Rel
Hum
%
Delta-T
°C
Wind Press
QNH
hPa
Press
MSL
hPa
Rain since
9am
mm
Dir  Spd
km/h
Gust
km/h
Spd
kts
Gust
kts
17/11:30pm 4.5 -1.4 3.9 96 0.3 WNW 24 30 13 16 - - 0.0
17/11:00pm 5.1 -2.7 3.0 86 0.9 NNW 33 43 18 23 - - 0.0
17/10:30pm 5.0 -2.5 3.3 89 0.7 NNW 32 39 17 21 - - 0.0
17/10:00pm 4.7 -2.8 3.7 93 0.4 NNW 32 37 17 20 - - 0.0
17/09:30pm 4.6 -3.0 3.7 94 0.4 NNW 33 43 18 23 - - 0.0
17/09:00pm 5.0 -1.1 2.7 85 1.0 NW 24 30 13 16 - - 0.0
17/08:30pm 5.0 -3.1 3.0 87 0.8 NNW 35 44 19 24 - - 0.0
17/08:00pm 4.9 -2.5 1.7 80 1.3 NW 30 39 16 21 - - 0.0
17/07:30pm 5.1 -3.1 2.6 84 1.0 NW 35 48 19 26 - - 0.0
17/07:00pm 5.0 -2.6 2.9 86 0.9 NW 32 46 17 25 - - 0.0
17/06:30pm 5.1 -1.3 3.1 87 0.8 NNW 26 37 14 20 - - 0.0
17/06:00pm 5.4 -2.7 3.4 87 0.9 NNW 35 46 19 25 - - 0.0
17/05:30pm 6.0 -1.5 3.2 82 1.2 NNW 32 43 17 23 - - 0.0
17/05:00pm 7.9 0.9 3.9 76 1.8 NNW 30 39 16 21 - - 0.0
17/04:30pm 6.5 0.0 4.7 88 0.8 NW 28 39 15 21 - - 0.0
17/04:00pm 6.3 -1.4 3.5 82 1.2 NW 33 43 18 23 - - 0.0
17/03:30pm 7.4 -0.8 2.7 72 2.0 WNW 35 44 19 24 - - 0.0
17/03:00pm 9.5 3.3 4.3 70 2.4 NNW 26 32 14 17 - - 0.0
17/02:30pm 7.5 -0.2 3.2 74 1.9 WNW 33 43 18 23 - - 0.0
17/02:09pm 8.3 0.4 2.3 66 2.6 WNW 33 54 18 29 - - 0.0
17/02:00pm 9.0 1.6 2.1 62 3.0 NW 30 39 16 21 - - 0.0
17/01:54pm 9.9 2.4 3.2 63 3.0 NNW 32 50 17 27 - - 0.0
17/01:30pm 8.1 -0.2 1.9 65 2.6 WNW 35 52 19 28 - - 0.0
17/01:16pm 8.1 -0.9 0.1 57 3.2 NW 37 57 20 31 - - 0.0
17/01:00pm 9.5 1.3 2.8 63 2.9 NW 35 43 19 23 - - 0.0
17/12:30pm 9.2 1.0 2.8 64 2.8 NW 35 48 19 26 - - 0.0
17/12:00pm 8.2 -1.1 0.9 60 3.0 WNW 39 48 21 26 - - 0.0
17/11:30am 9.1 0.4 2.2 62 3.0 NNW 37 46 20 25 - - 0.0
17/11:10am 9.7 1.9 2.6 61 3.1 NW 33 56 18 30 - - 0.0
17/11:00am 10.0 2.9 3.5 64 2.9 NW 30 39 16 21 - - 0.0
17/10:30am 8.2 0.8 4.2 76 1.8 NNW 32 43 17 23 - - 0.0
17/10:00am 8.0 0.5 4.4 78 1.6 NNW 33 46 18 25 - - 0.0
17/09:30am 5.3 -2.2 4.3 93 0.4 NNW 33 39 18 21 - - 0.0
17/09:00am 4.9 -2.6 3.6 91 0.6 NNW 32 35 17 19 - - 2.6
17/08:30am 3.6 -3.5 3.3 98 0.1 NNW 30 39 16 21 - - 2.6
17/08:00am 3.2 -3.6 3.2 100 0.0 N 28 33 15 18 - - 2.6
17/07:30am 2.7 -4.2 2.7 100 0.0 NNW 28 35 15 19 - - 2.6
17/07:00am 2.1 -4.1 2.1 100 0.0 NNW 24 30 13 16 - - 2.6
17/06:30am 2.2 -3.0 2.2 100 0.0 N 19 24 10 13 - - 2.6
17/06:00am 2.0 -3.9 2.0 100 0.0 N 22 30 12 16 - - 2.6
17/05:30am 2.2 -3.2 2.2 100 0.0 NW 20 28 11 15 - - 2.6
17/05:00am 1.8 -4.5 1.8 100 0.0 NNW 24 30 13 16 - - 2.6
17/04:30am 1.5 -5.2 1.5 100 0.0 NW 26 30 14 16 - - 2.6
17/04:00am 1.5 -4.1 1.5 100 0.0 NW 20 26 11 14 - - 2.6
17/03:30am 1.0 -4.1 1.0 100 0.0 NW 17 24 9 13 - - 2.6
17/03:00am 1.3 -4.7 1.3 100 0.0 NW 22 26 12 14 - - 2.6
17/02:30am 1.4 -6.1 1.4 100 0.0 NW 30 35 16 19 - - 2.6
17/02:00am 1.6 -5.8 1.6 100 0.0 NW 30 39 16 21 - - 2.6
17/01:30am 1.5 -4.1 1.5 100 0.0 NNW 20 26 11 14 - - 2.6
17/01:00am 1.3 -4.1 1.3 100 0.0 NNW 19 24 10 13 - - 2.6
17/12:30am 1.4 -1.7 1.4 100 0.0 NW 7 11 4 6 - - 2.6
17/12:00am 1.7 -5.3 1.7 100 0.0 NW 28 32 15 17 - - 2.6
 
Date/Time
EST
Temp
°C
App
Temp
°C
Dew
Point
°C
Rel
Hum
%
Delta-T
°C
Wind Press
QNH
hPa
Press
MSL
hPa
Rain since
9am
mm
Dir  Spd
km/h
Gust
km/h
Spd
kts
Gust
kts
16/11:46pm 1.4 -5.7 1.4 100 0.0 NW 28 35 15 19 - - 2.4
16/11:30pm 1.1 -3.2 1.1 100 0.0 NW 13 17 7 9 - - 2.4
16/11:00pm 1.2 -3.5 1.2 100 0.0 NW 15 24 8 13 - - 2.4
16/10:30pm 1.1 -2.8 1.1 100 0.0 W 11 15 6 8 - - 2.4
16/10:00pm 1.6 -4.4 1.2 97 0.2 W 22 35 12 19 - - 2.2
16/09:30pm 1.5 -4.8 1.4 99 0.0 WNW 24 30 13 16 - - 2.0
16/09:00pm 1.4 -4.0 1.4 100 0.0 NW 19 22 10 12 - - 1.6
16/08:30pm 1.6 -5.2 0.9 95 0.3 W 26 35 14 19 - - 1.6
16/08:20pm 1.8 -5.0 0.9 94 0.3 WNW 26 37 14 20 - - 1.4
16/08:00pm 1.2 -3.1 1.1 99 0.0 NW 13 17 7 9 - - 1.4
16/07:30pm 0.6 -2.1 0.5 99 0.0 NNW 4 13 2 7 - - 1.4
16/07:00pm 0.9 -3.0 0.9 100 0.0 W 11 15 6 8 - - 1.4
16/06:30pm 1.0 -5.8 0.6 97 0.2 W 26 44 14 24 - - 1.4
16/06:12pm 2.7 -3.1 -0.1 82 1.1 WNW 20 39 11 21 - - 1.2
16/06:00pm 2.7 -1.1 -0.9 77 1.3 W 9 13 5 7 - - 1.2
16/05:30pm 3.3 -1.2 -0.5 76 1.4 WNW 13 20 7 11 - - 1.2
16/05:00pm 3.0 -1.5 -0.3 79 1.3 WNW 13 22 7 12 - - 1.2
16/04:30pm 3.1 -3.7 0.5 83 1.0 WSW 26 41 14 22 - - 1.2
16/04:11pm 3.9 -2.7 -0.5 73 1.7 W 24 46 13 25 - - 1.2
16/04:00pm 5.6 0.0 -0.2 66 2.3 W 19 26 10 14 - - 1.2
16/03:30pm 4.5 -3.0 -1.7 64 2.3 WSW 28 48 15 26 - - 1.2
16/03:02pm 4.8 -1.9 -1.0 66 2.2 WSW 24 46 13 25 - - 1.2
16/03:00pm 4.4 -1.9 -1.2 67 2.1 WSW 22 46 12 25 - - 1.2
16/02:30pm 4.5 -2.3 -2.1 62 2.4 WSW 24 41 13 22 - - 1.2
16/02:20pm 4.5 -3.0 -1.7 64 2.3 WSW 28 54 15 29 - - 1.2
16/02:00pm 5.1 -1.2 -0.7 66 2.2 SW 22 43 12 23 - - 1.2
16/01:50pm 5.1 -3.0 -3.2 55 3.0 W 30 46 16 25 - - 1.2
16/01:41pm 5.3 -3.3 -2.3 58 2.8 W 33 54 18 29 - - 1.2
16/01:39pm 5.6 -2.8 -2.2 57 2.9 WSW 32 54 17 29 - - 1.2
16/01:30pm 4.9 -3.3 -3.6 54 3.0 SW 30 48 16 26 - - 1.2
16/01:00pm 6.1 -1.3 -0.4 63 2.5 WSW 28 56 15 30 - - 1.2
16/12:40pm 5.3 -0.7 -1.4 62 2.5 SW 20 48 11 26 - - 1.2
16/12:30pm 5.2 -1.0 -0.2 68 2.1 SW 22 35 12 19 - - 1.2
16/12:00pm 4.1 -2.4 0.6 78 1.4 W 24 41 13 22 - - 1.2
16/11:32am 3.7 -4.0 -0.3 75 1.5 W 30 61 16 33 - - 1.0
16/11:30am 4.3 -2.2 0.5 76 1.5 W 24 41 13 22 - - 1.0
16/11:00am 3.8 -1.5 1.8 87 0.8 WSW 19 30 10 16 - - 1.0
16/10:30am 3.7 -1.0 3.1 96 0.3 WSW 17 28 9 15 - - 0.8
16/10:06am 1.7 -6.2 1.1 96 0.2 WSW 32 61 17 33 - - 0.8
16/10:00am 1.2 -7.0 0.2 93 0.4 WSW 33 69 18 37 - - 0.8
16/09:57am 1.5 -5.5 -0.3 88 0.7 WSW 26 69 14 37 - - 0.6
16/09:55am 2.3 -3.3 -0.3 83 1.0 WSW 19 69 10 37 - - 0.2
16/09:30am 4.1 -0.6 3.1 93 0.4 WSW 17 32 9 17 - - 0.0
16/09:00am 2.3 -3.7 1.0 91 0.5 WNW 22 33 12 18 - - 13.2
16/08:30am 0.7 -7.3 0.7 100 0.0 WSW 32 54 17 29 - - 12.6
16/08:13am 1.4 -5.4 1.0 97 0.2 WSW 26 46 14 25 - - 12.2
16/08:00am 1.6 -4.0 1.5 99 0.0 WNW 20 43 11 23 - - 11.6
16/07:30am 0.9 -4.2 0.8 99 0.0 W 17 24 9 13 - - 11.0
16/07:00am 0.7 -7.3 0.7 100 0.0 WSW 32 59 17 32 - - 10.6
16/06:43am 1.3 -5.8 1.3 100 0.0 WNW 28 57 15 31 - - 10.2
16/06:30am 1.4 -3.3 1.1 98 0.1 W 15 22 8 12 - - 10.2
16/06:00am 1.2 -6.3 0.9 98 0.1 WSW 30 52 16 28 - - 10.2
16/05:43am 1.6 -4.7 1.5 99 0.0 WNW 24 63 13 34 - - 9.6
16/05:30am 2.0 -2.9 2.0 100 0.0 W 17 24 9 13 - - 9.4
16/05:06am 1.5 -5.6 1.5 100 0.0 WSW 28 50 15 27 - - 9.0
16/05:00am 1.6 -5.1 1.6 100 0.0 WSW 26 41 14 22 - - 8.8
16/04:37am 1.5 -6.0 1.4 99 0.0 WSW 30 76 16 41 - - 7.6
16/04:30am 2.6 -2.2 2.6 100 0.0 WSW 17 33 9 18 - - 7.0
16/04:13am 2.5 -4.0 2.5 100 0.0 WSW 26 52 14 28 - - 6.2
16/04:00am 2.2 -7.6 2.2 100 0.0 WSW 43 69 23 37 - - 6.0
16/03:49am 2.9 -7.7 2.9 100 0.0 W 48 78 26 42 - - 5.6
16/03:46am 3.0 -6.9 2.6 97 0.2 W 44 78 24 42 - - 5.4
16/03:30am 3.5 -5.3 3.4 99 0.0 WNW 39 57 21 31 - - 4.8
16/03:00am 3.6 -7.5 2.4 92 0.5 WNW 50 70 27 38 - - 4.2
16/02:41am 3.7 -5.6 3.1 96 0.3 WNW 41 63 22 34 - - 4.0
16/02:35am 3.5 -7.4 3.4 99 0.0 WNW 50 65 27 35 - - 4.0
16/02:30am 3.5 -9.1 3.5 100 0.0 WNW 59 80 32 43 - - 4.0
16/02:03am 3.8 -8.8 3.8 100 0.0 NW 59 89 32 48 - - 3.6
16/02:00am 3.6 -9.4 3.6 100 0.0 NW 61 76 33 41 - - 3.6
16/01:34am 3.8 -10.7 3.8 100 0.0 NW 69 87 37 47 - - 3.0
16/01:30am 4.1 -10.9 4.1 100 0.0 NW 72 87 39 47 - - 2.6
16/01:19am 4.4 -10.1 4.4 100 0.0 NW 70 91 38 49 - - 2.2
16/01:01am 4.2 -8.7 4.2 100 0.0 NW 61 85 33 46 - - 2.2
16/01:00am 4.2 -8.7 4.2 100 0.0 NW 61 78 33 42 - - 2.2
16/12:30am 4.4 -9.9 4.4 100 0.0 NW 69 87 37 47 - - 1.4
16/12:00am 5.5 -7.7 4.2 91 0.6 NW 63 91 34 49 - - 0.4
 
Date/Time
EST
Temp
°C
App
Temp
°C
Dew
Point
°C
Rel
Hum
%
Delta-T
°C
Wind Press
QNH
hPa
Press
MSL
hPa
Rain since
9am
mm
Dir  Spd
km/h
Gust
km/h
Spd
kts
Gust
kts
15/11:30pm 5.2 -8.3 4.8 97 0.2 NW 65 87 35 47 - - 0.4
15/11:00pm 4.9 -9.2 3.6 91 0.6 NW 67 85 36 46 - - 0.0
15/10:46pm 6.5 -4.7 1.6 71 2.0 NW 50 82 27 44 - - 0.0
15/10:42pm 6.3 -3.6 1.6 72 1.9 NW 43 61 23 33 - - 0.0
15/10:30pm 6.1 -3.9 1.1 70 2.0 NW 43 56 23 30 - - 0.0
15/10:00pm 6.5 -3.2 2.6 76 1.7 NW 43 52 23 28 - - 0.0
15/09:39pm 6.5 -2.0 3.1 79 1.5 NW 37 56 20 30 - - 0.0
15/09:30pm 6.5 -2.8 3.1 79 1.5 NW 41 52 22 28 - - 0.0
15/09:09pm 6.9 -0.4 2.4 73 1.9 NW 30 52 16 28 - - 0.0
15/09:00pm 6.7 0.2 2.6 75 1.7 NW 26 37 14 20 - - 0.0
15/08:34pm 6.7 -1.6 2.0 72 2.0 NW 35 54 19 29 - - 0.0
15/08:30pm 6.8 -2.7 1.9 71 2.0 NW 41 54 22 29 - - 0.0
15/08:00pm 7.0 -0.8 2.7 74 1.8 NW 33 44 18 24 - - 0.0
15/07:30pm 7.0 -1.7 2.3 72 2.0 NW 37 50 20 27 - - 0.0
15/07:00pm 6.9 -1.4 2.4 73 1.9 WNW 35 43 19 23 - - 0.0
15/06:30pm 7.0 0.0 2.1 71 2.1 NW 28 35 15 19 - - 0.0
15/06:00pm 7.2 -0.8 1.9 69 2.2 WNW 33 44 18 24 - - 0.0
15/05:30pm 7.6 -0.4 1.9 67 2.4 WNW 33 48 18 26 - - 0.0
15/05:00pm 8.1 -0.2 2.4 67 2.4 WNW 35 48 19 26 - - 0.0
15/04:52pm 8.2 -0.4 2.4 67 2.5 WNW 37 56 20 30 - - 0.0
15/04:30pm 8.3 -2.0 2.5 67 2.5 WNW 46 57 25 31 - - 0.0
15/04:00pm 8.9 0.0 2.9 66 2.6 WNW 39 54 21 29 - - 0.0
15/03:30pm 9.5 0.2 2.8 63 2.9 WNW 41 56 22 30 - - 0.0
15/03:00pm 9.7 0.0 3.0 63 3.0 WNW 43 52 23 28 - - 0.0
15/02:30pm 10.3 0.6 3.1 61 3.2 NW 43 59 23 32 - - 0.0
15/02:00pm 10.6 0.2 1.9 55 3.8 WNW 46 56 25 30 - - 0.0
15/01:30pm 10.4 0.7 3.7 63 3.0 NW 44 57 24 31 - - 0.0
15/01:00pm 12.1 3.1 4.8 61 3.4 WNW 41 50 22 27 - - 0.0
15/12:47pm 12.2 3.7 3.4 55 4.0 NW 37 57 20 31 - - 0.0
15/12:30pm 12.0 2.6 4.2 59 3.6 NW 43 54 23 29 - - 0.0
15/12:00pm 11.6 2.1 4.1 60 3.4 NW 43 54 23 29 - - 0.0
15/11:30am 9.5 0.9 4.7 72 2.2 NW 39 50 21 27 - - 0.0
15/11:13am 9.4 0.6 3.8 68 2.5 NW 39 57 21 31 - - 0.0
15/11:00am 10.2 1.3 5.2 71 2.3 NW 41 52 22 28 - - 0.0
15/10:30am 8.9 1.5 4.9 76 1.8 NW 33 41 18 22 - - 0.0
15/10:00am 8.8 1.4 4.8 76 1.8 NW 33 46 18 25 - - 0.0
15/09:30am 8.0 -1.0 4.4 78 1.6 NW 41 52 22 28 - - 0.0
15/09:00am 7.4 0.2 5.7 89 0.8 NW 33 48 18 26 - - 3.2

Other formats

Comma delimited format used in spreadsheet applications
http://www.bom.gov.au/fwo/IDT60801/IDT60801.95958.axf

JavaScript Object Notation format (JSON) in row-major order
http://www.bom.gov.au/fwo/IDT60801/IDT60801.95958.json

Data quality

Most of these data are generated automatically and are frequently updated. Quality checks on data are not normally performed. It is possible for incorrect values to appear. Refer to information at About Latest Weather Observations and please check the disclaimer before using these data.